sensor_id;sensor_type;location;lat;lon;timestamp;pressure;altitude;pressure_sealevel;temperature;humidity
59877;BME280;45749;51.140;17.184;2022-10-16T00:01:33;100059.92;;;12.76;98.33
59877;BME280;45749;51.140;17.184;2022-10-16T00:03:59;100061.62;;;12.77;98.30
59877;BME280;45749;51.140;17.184;2022-10-16T00:06:27;100061.96;;;12.78;98.28
59877;BME280;45749;51.140;17.184;2022-10-16T00:08:54;100059.31;;;12.78;98.21
59877;BME280;45749;51.140;17.184;2022-10-16T00:11:23;100055.45;;;12.76;98.18
59877;BME280;45749;51.140;17.184;2022-10-16T00:13:57;100063.89;;;12.76;98.22
59877;BME280;45749;51.140;17.184;2022-10-16T00:16:24;100063.20;;;12.74;98.24
59877;BME280;45749;51.140;17.184;2022-10-16T00:18:50;100066.31;;;12.73;98.28
59877;BME280;45749;51.140;17.184;2022-10-16T00:21:19;100064.16;;;12.73;98.34
59877;BME280;45749;51.140;17.184;2022-10-16T00:23:55;100066.80;;;12.73;98.41
59877;BME280;45749;51.140;17.184;2022-10-16T00:26:25;100063.20;;;12.74;98.43
59877;BME280;45749;51.140;17.184;2022-10-16T00:28:52;100060.18;;;12.73;98.46
59877;BME280;45749;51.140;17.184;2022-10-16T00:31:20;100070.77;;;12.73;98.50
59877;BME280;45749;51.140;17.184;2022-10-16T00:33:48;100064.53;;;12.74;98.54
59877;BME280;45749;51.140;17.184;2022-10-16T00:36:17;100058.74;;;12.74;98.54
59877;BME280;45749;51.140;17.184;2022-10-16T00:38:44;100063.89;;;12.76;98.41
59877;BME280;45749;51.140;17.184;2022-10-16T00:41:16;100071.34;;;12.76;98.31
59877;BME280;45749;51.140;17.184;2022-10-16T00:43:49;100065.59;;;12.77;98.18
59877;BME280;45749;51.140;17.184;2022-10-16T00:46:22;100069.27;;;12.80;97.97
59877;BME280;45749;51.140;17.184;2022-10-16T00:48:56;100067.26;;;12.78;97.87
59877;BME280;45749;51.140;17.184;2022-10-16T00:51:40;100065.78;;;12.79;97.92
59877;BME280;45749;51.140;17.184;2022-10-16T00:54:09;100065.59;;;12.77;97.75
59877;BME280;45749;51.140;17.184;2022-10-16T00:56:38;100063.14;;;12.79;97.68
59877;BME280;45749;51.140;17.184;2022-10-16T00:59:07;100058.97;;;12.77;97.71
59877;BME280;45749;51.140;17.184;2022-10-16T01:01:36;100058.74;;;12.74;97.78
59877;BME280;45749;51.140;17.184;2022-10-16T01:04:02;100065.48;;;12.73;97.88
59877;BME280;45749;51.140;17.184;2022-10-16T01:09:35;100060.67;;;12.72;98.16
59877;BME280;45749;51.140;17.184;2022-10-16T01:12:10;100060.81;;;12.71;98.25
59877;BME280;45749;51.140;17.184;2022-10-16T01:14:58;100066.23;;;12.69;98.43
59877;BME280;45749;51.140;17.184;2022-10-16T01:20:32;100069.02;;;12.67;98.64
59877;BME280;45749;51.140;17.184;2022-10-16T01:23:10;100066.98;;;12.65;98.71
59877;BME280;45749;51.140;17.184;2022-10-16T01:28:40;100056.88;;;12.65;98.81
59877;BME280;45749;51.140;17.184;2022-10-16T01:31:10;100062.17;;;12.65;98.92
59877;BME280;45749;51.140;17.184;2022-10-16T01:33:45;100071.09;;;12.64;99.01
59877;BME280;45749;51.140;17.184;2022-10-16T01:36:25;100079.48;;;12.63;99.06
59877;BME280;45749;51.140;17.184;2022-10-16T01:38:52;100073.51;;;12.61;99.20
59877;BME280;45749;51.140;17.184;2022-10-16T01:41:23;100073.85;;;12.62;99.25
59877;BME280;45749;51.140;17.184;2022-10-16T01:44:04;100066.89;;;12.61;99.27
59877;BME280;45749;51.140;17.184;2022-10-16T01:46:33;100058.80;;;12.63;99.29
59877;BME280;45749;51.140;17.184;2022-10-16T01:49:02;100059.64;;;12.63;99.24
59877;BME280;45749;51.140;17.184;2022-10-16T01:51:29;100056.98;;;12.63;99.17
59877;BME280;45749;51.140;17.184;2022-10-16T01:53:58;100063.00;;;12.65;99.18
59877;BME280;45749;51.140;17.184;2022-10-16T01:56:27;100068.79;;;12.65;99.15
59877;BME280;45749;51.140;17.184;2022-10-16T01:58:57;100067.47;;;12.65;99.12
59877;BME280;45749;51.140;17.184;2022-10-16T02:01:31;100068.30;;;12.65;99.10
59877;BME280;45749;51.140;17.184;2022-10-16T02:04:01;100069.02;;;12.67;99.03
59877;BME280;45749;51.140;17.184;2022-10-16T02:06:30;100071.29;;;12.66;99.02
59877;BME280;45749;51.140;17.184;2022-10-16T02:08:56;100076.23;;;12.65;99.08
59877;BME280;45749;51.140;17.184;2022-10-16T02:11:22;100082.25;;;12.67;99.16
59877;BME280;45749;51.140;17.184;2022-10-16T02:13:58;100079.46;;;12.69;99.13
59877;BME280;45749;51.140;17.184;2022-10-16T02:16:36;100071.52;;;12.69;99.11
59877;BME280;45749;51.140;17.184;2022-10-16T02:19:07;100075.38;;;12.71;99.04
59877;BME280;45749;51.140;17.184;2022-10-16T02:21:47;100083.17;;;12.72;98.98
59877;BME280;45749;51.140;17.184;2022-10-16T02:27:11;100083.41;;;12.75;99.02
59877;BME280;45749;51.140;17.184;2022-10-16T02:30:07;100086.05;;;12.75;98.96
59877;BME280;45749;51.140;17.184;2022-10-16T02:32:39;100084.38;;;12.74;98.96
59877;BME280;45749;51.140;17.184;2022-10-16T02:35:06;100087.86;;;12.74;98.84
59877;BME280;45749;51.140;17.184;2022-10-16T02:37:34;100094.00;;;12.75;98.93
59877;BME280;45749;51.140;17.184;2022-10-16T02:40:00;100099.63;;;12.76;98.89
59877;BME280;45749;51.140;17.184;2022-10-16T02:42:38;100102.77;;;12.75;98.81
59877;BME280;45749;51.140;17.184;2022-10-16T02:45:07;100110.22;;;12.76;98.89
59877;BME280;45749;51.140;17.184;2022-10-16T02:47:34;100106.25;;;12.76;98.98
59877;BME280;45749;51.140;17.184;2022-10-16T02:50:00;100109.62;;;12.78;98.85
59877;BME280;45749;51.140;17.184;2022-10-16T02:52:26;100103.34;;;12.79;98.72
59877;BME280;45749;51.140;17.184;2022-10-16T02:54:52;100108.03;;;12.81;98.63
59877;BME280;45749;51.140;17.184;2022-10-16T02:57:18;100099.38;;;12.79;98.55
59877;BME280;45749;51.140;17.184;2022-10-16T02:59:44;100098.69;;;12.77;98.63
59877;BME280;45749;51.140;17.184;2022-10-16T03:02:11;100100.95;;;12.76;98.48
59877;BME280;45749;51.140;17.184;2022-10-16T03:04:37;100107.23;;;12.75;98.62
59877;BME280;45749;51.140;17.184;2022-10-16T03:07:04;100105.42;;;12.75;98.70
59877;BME280;45749;51.140;17.184;2022-10-16T03:09:30;100098.45;;;12.74;98.65
59877;BME280;45749;51.140;17.184;2022-10-16T03:11:56;100105.33;;;12.71;98.76
59877;BME280;45749;51.140;17.184;2022-10-16T03:14:22;100099.69;;;12.70;98.80
59877;BME280;45749;51.140;17.184;2022-10-16T03:16:48;100105.33;;;12.71;98.82
59877;BME280;45749;51.140;17.184;2022-10-16T03:19:16;100124.35;;;12.71;98.75
59877;BME280;45749;51.140;17.184;2022-10-16T03:21:43;100118.56;;;12.71;98.77
59877;BME280;45749;51.140;17.184;2022-10-16T03:24:09;100118.56;;;12.71;98.88
59877;BME280;45749;51.140;17.184;2022-10-16T03:26:35;100127.34;;;12.72;99.11
59877;BME280;45749;51.140;17.184;2022-10-16T03:29:02;100126.59;;;12.75;99.27
59877;BME280;45749;51.140;17.184;2022-10-16T03:31:29;100128.50;;;12.79;99.23
59877;BME280;45749;51.140;17.184;2022-10-16T03:33:55;100127.06;;;12.80;99.29
59877;BME280;45749;51.140;17.184;2022-10-16T03:36:21;100117.30;;;12.81;99.31
59877;BME280;45749;51.140;17.184;2022-10-16T03:38:47;100115.61;;;12.80;99.26
59877;BME280;45749;51.140;17.184;2022-10-16T03:41:13;100115.89;;;12.77;99.29
59877;BME280;45749;51.140;17.184;2022-10-16T03:43:39;100111.69;;;12.74;99.44
59877;BME280;45749;51.140;17.184;2022-10-16T03:46:05;100110.48;;;12.73;99.65
59877;BME280;45749;51.140;17.184;2022-10-16T03:48:31;100125.19;;;12.71;99.82
59877;BME280;45749;51.140;17.184;2022-10-16T03:50:58;100129.16;;;12.71;100.00
59877;BME280;45749;51.140;17.184;2022-10-16T03:53:24;100137.94;;;12.72;100.00
59877;BME280;45749;51.140;17.184;2022-10-16T03:55:50;100134.80;;;12.72;100.00
59877;BME280;45749;51.140;17.184;2022-10-16T03:58:16;100143.09;;;12.73;100.00
59877;BME280;45749;51.140;17.184;2022-10-16T04:00:43;100138.66;;;12.74;100.00
59877;BME280;45749;51.140;17.184;2022-10-16T04:03:12;100128.27;;;12.76;100.00
59877;BME280;45749;51.140;17.184;2022-10-16T04:05:39;100126.11;;;12.76;100.00
59877;BME280;45749;51.140;17.184;2022-10-16T04:08:09;100134.89;;;12.76;100.00
59877;BME280;45749;51.140;17.184;2022-10-16T04:10:34;100136.59;;;12.77;100.00
59877;BME280;45749;51.140;17.184;2022-10-16T04:13:00;100138.25;;;12.78;100.00
59877;BME280;45749;51.140;17.184;2022-10-16T04:15:26;100135.12;;;12.79;100.00
59877;BME280;45749;51.140;17.184;2022-10-16T04:17:52;100140.76;;;12.80;100.00
59877;BME280;45749;51.140;17.184;2022-10-16T04:20:18;100145.94;;;12.81;100.00
59877;BME280;45749;51.140;17.184;2022-10-16T04:22:44;100146.78;;;12.82;100.00
59877;BME280;45749;51.140;17.184;2022-10-16T04:25:10;100143.64;;;12.82;100.00
59877;BME280;45749;51.140;17.184;2022-10-16T04:27:38;100143.03;;;12.84;100.00
59877;BME280;45749;51.140;17.184;2022-10-16T04:30:05;100142.40;;;12.86;100.00
59877;BME280;45749;51.140;17.184;2022-10-16T04:32:32;100144.21;;;12.86;100.00
59877;BME280;45749;51.140;17.184;2022-10-16T04:34:58;100135.44;;;12.85;100.00
59877;BME280;45749;51.140;17.184;2022-10-16T04:37:25;100135.92;;;12.85;100.00
59877;BME280;45749;51.140;17.184;2022-10-16T04:39:52;100145.80;;;12.83;100.00
59877;BME280;45749;51.140;17.184;2022-10-16T04:42:19;100157.11;;;12.85;100.00
59877;BME280;45749;51.140;17.184;2022-10-16T04:44:46;100158.09;;;12.84;100.00
59877;BME280;45749;51.140;17.184;2022-10-16T04:47:13;100173.00;;;12.85;100.00
59877;BME280;45749;51.140;17.184;2022-10-16T04:49:39;100169.63;;;12.83;100.00
59877;BME280;45749;51.140;17.184;2022-10-16T04:52:05;100166.98;;;12.83;100.00
59877;BME280;45749;51.140;17.184;2022-10-16T04:54:31;100161.69;;;12.83;100.00
59877;BME280;45749;51.140;17.184;2022-10-16T04:56:57;100156.88;;;12.82;100.00
59877;BME280;45749;51.140;17.184;2022-10-16T04:59:24;100160.02;;;12.82;100.00
59877;BME280;45749;51.140;17.184;2022-10-16T05:01:50;100161.69;;;12.83;100.00
59877;BME280;45749;51.140;17.184;2022-10-16T05:04:16;100166.52;;;12.83;100.00
59877;BME280;45749;51.140;17.184;2022-10-16T05:06:42;100170.00;;;12.84;100.00
59877;BME280;45749;51.140;17.184;2022-10-16T05:09:09;100167.70;;;12.85;100.00
59877;BME280;45749;51.140;17.184;2022-10-16T05:11:36;100171.19;;;12.85;100.00
59877;BME280;45749;51.140;17.184;2022-10-16T05:14:02;100163.73;;;12.85;100.00
59877;BME280;45749;51.140;17.184;2022-10-16T05:16:28;100161.42;;;12.86;100.00
59877;BME280;45749;51.140;17.184;2022-10-16T05:18:56;100168.05;;;12.86;100.00
59877;BME280;45749;51.140;17.184;2022-10-16T05:21:22;100167.70;;;12.85;100.00
59877;BME280;45749;51.140;17.184;2022-10-16T05:23:48;100176.97;;;12.85;100.00
59877;BME280;45749;51.140;17.184;2022-10-16T05:26:15;100187.22;;;12.84;100.00
59877;BME280;45749;51.140;17.184;2022-10-16T05:28:41;100189.37;;;12.84;100.00
59877;BME280;45749;51.140;17.184;2022-10-16T05:31:08;100184.91;;;12.85;100.00
59877;BME280;45749;51.140;17.184;2022-10-16T05:33:35;100176.97;;;12.85;100.00
59877;BME280;45749;51.140;17.184;2022-10-16T05:36:04;100177.11;;;12.83;100.00
59877;BME280;45749;51.140;17.184;2022-10-16T05:38:33;100183.59;;;12.85;100.00
59877;BME280;45749;51.140;17.184;2022-10-16T05:41:00;100185.75;;;12.85;100.00
59877;BME280;45749;51.140;17.184;2022-10-16T05:43:28;100184.77;;;12.86;100.00
59877;BME280;45749;51.140;17.184;2022-10-16T05:45:56;100189.95;;;12.88;100.00
59877;BME280;45749;51.140;17.184;2022-10-16T05:48:24;100193.78;;;12.89;100.00
59877;BME280;45749;51.140;17.184;2022-10-16T05:50:59;100194.50;;;12.91;100.00
59877;BME280;45749;51.140;17.184;2022-10-16T05:53:29;100188.38;;;12.91;100.00
59877;BME280;45749;51.140;17.184;2022-10-16T05:55:56;100187.53;;;12.90;100.00
59877;BME280;45749;51.140;17.184;2022-10-16T05:58:23;100189.34;;;12.90;100.00
59877;BME280;45749;51.140;17.184;2022-10-16T06:03:23;100190.67;;;12.90;100.00
59877;BME280;45749;51.140;17.184;2022-10-16T06:05:50;100195.34;;;12.92;100.00
59877;BME280;45749;51.140;17.184;2022-10-16T06:08:18;100202.80;;;12.93;100.00
59877;BME280;45749;51.140;17.184;2022-10-16T06:10:44;100207.34;;;12.96;100.00
59877;BME280;45749;51.140;17.184;2022-10-16T06:13:12;100218.66;;;12.98;100.00
59877;BME280;45749;51.140;17.184;2022-10-16T06:15:40;100216.73;;;13.00;100.00
59877;BME280;45749;51.140;17.184;2022-10-16T06:18:09;100214.28;;;13.03;100.00
59877;BME280;45749;51.140;17.184;2022-10-16T06:20:36;100221.86;;;13.07;100.00
59877;BME280;45749;51.140;17.184;2022-10-16T06:23:02;100222.55;;;13.09;100.00
59877;BME280;45749;51.140;17.184;2022-10-16T06:25:30;100227.25;;;13.11;100.00
59877;BME280;45749;51.140;17.184;2022-10-16T06:27:57;100225.33;;;13.13;100.00
59877;BME280;45749;51.140;17.184;2022-10-16T06:30:23;100227.72;;;13.17;100.00
59877;BME280;45749;51.140;17.184;2022-10-16T06:32:49;100233.09;;;13.21;100.00
59877;BME280;45749;51.140;17.184;2022-10-16T06:35:15;100242.60;;;13.23;100.00
59877;BME280;45749;51.140;17.184;2022-10-16T06:37:41;100237.91;;;13.27;100.00
59877;BME280;45749;51.140;17.184;2022-10-16T06:40:07;100238.98;;;13.30;100.00
59877;BME280;45749;51.140;17.184;2022-10-16T06:42:33;100241.71;;;13.34;100.00
59877;BME280;45749;51.140;17.184;2022-10-16T06:44:59;100236.49;;;13.38;100.00
59877;BME280;45749;51.140;17.184;2022-10-16T06:47:27;100247.18;;;13.42;100.00
59877;BME280;45749;51.140;17.184;2022-10-16T06:49:53;100249.57;;;13.45;100.00
59877;BME280;45749;51.140;17.184;2022-10-16T06:52:19;100250.14;;;13.49;100.00
59877;BME280;45749;51.140;17.184;2022-10-16T06:54:44;100249.77;;;13.53;100.00
59877;BME280;45749;51.140;17.184;2022-10-16T06:57:10;100251.66;;;13.57;100.00
59877;BME280;45749;51.140;17.184;2022-10-16T06:59:36;100259.58;;;13.63;100.00
59877;BME280;45749;51.140;17.184;2022-10-16T07:02:02;100261.83;;;13.67;100.00
59877;BME280;45749;51.140;17.184;2022-10-16T07:04:28;100262.62;;;13.73;100.00
59877;BME280;45749;51.140;17.184;2022-10-16T07:06:54;100265.70;;;13.78;100.00
59877;BME280;45749;51.140;17.184;2022-10-16T07:09:19;100269.64;;;13.84;100.00
59877;BME280;45749;51.140;17.184;2022-10-16T07:11:45;100278.24;;;13.92;100.00
59877;BME280;45749;51.140;17.184;2022-10-16T07:14:19;100277.52;;;13.95;100.00
59877;BME280;45749;51.140;17.184;2022-10-16T07:16:47;100284.91;;;14.01;100.00
59877;BME280;45749;51.140;17.184;2022-10-16T07:19:14;100280.40;;;14.07;100.00
59877;BME280;45749;51.140;17.184;2022-10-16T07:21:43;100290.36;;;14.15;100.00
59877;BME280;45749;51.140;17.184;2022-10-16T07:24:14;100289.79;;;14.21;100.00
59877;BME280;45749;51.140;17.184;2022-10-16T07:26:41;100295.89;;;14.27;100.00
59877;BME280;45749;51.140;17.184;2022-10-16T07:29:16;100297.05;;;14.35;100.00
59877;BME280;45749;51.140;17.184;2022-10-16T07:31:44;100296.13;;;14.40;100.00
59877;BME280;45749;51.140;17.184;2022-10-16T07:34:13;100293.92;;;14.45;100.00
59877;BME280;45749;51.140;17.184;2022-10-16T07:36:40;100295.20;;;14.50;100.00
59877;BME280;45749;51.140;17.184;2022-10-16T07:39:06;100301.44;;;14.55;100.00
59877;BME280;45749;51.140;17.184;2022-10-16T07:41:32;100301.73;;;14.62;100.00
59877;BME280;45749;51.140;17.184;2022-10-16T07:44:00;100307.45;;;14.67;100.00
59877;BME280;45749;51.140;17.184;2022-10-16T07:46:26;100293.77;;;14.71;100.00
59877;BME280;45749;51.140;17.184;2022-10-16T07:48:52;100294.67;;;14.76;100.00
59877;BME280;45749;51.140;17.184;2022-10-16T07:51:21;100296.90;;;14.81;100.00
59877;BME280;45749;51.140;17.184;2022-10-16T07:53:48;100289.02;;;14.85;100.00
59877;BME280;45749;51.140;17.184;2022-10-16T07:56:15;100289.92;;;14.89;100.00
59877;BME280;45749;51.140;17.184;2022-10-16T07:58:42;100294.96;;;14.92;100.00
59877;BME280;45749;51.140;17.184;2022-10-16T08:01:14;100291.03;;;14.96;100.00
59877;BME280;45749;51.140;17.184;2022-10-16T08:03:46;100289.09;;;14.98;100.00
59877;BME280;45749;51.140;17.184;2022-10-16T08:06:15;100296.28;;;15.02;100.00
59877;BME280;45749;51.140;17.184;2022-10-16T08:08:41;100299.50;;;15.06;100.00
59877;BME280;45749;51.140;17.184;2022-10-16T08:11:08;100298.23;;;15.10;100.00
59877;BME280;45749;51.140;17.184;2022-10-16T08:13:34;100302.64;;;15.15;100.00
59877;BME280;45749;51.140;17.184;2022-10-16T08:16:02;100303.69;;;15.18;100.00
59877;BME280;45749;51.140;17.184;2022-10-16T08:18:30;100302.42;;;15.22;100.00
59877;BME280;45749;51.140;17.184;2022-10-16T08:20:58;100301.52;;;15.27;100.00
59877;BME280;45749;51.140;17.184;2022-10-16T08:23:25;100315.20;;;15.32;100.00
59877;BME280;45749;51.140;17.184;2022-10-16T08:25:53;100317.30;;;15.38;100.00
59877;BME280;45749;51.140;17.184;2022-10-16T08:28:20;100315.06;;;15.43;100.00
59877;BME280;45749;51.140;17.184;2022-10-16T08:30:47;100316.66;;;15.50;100.00
59877;BME280;45749;51.140;17.184;2022-10-16T08:33:13;100324.04;;;15.56;100.00
59877;BME280;45749;51.140;17.184;2022-10-16T08:35:39;100323.97;;;15.62;100.00
59877;BME280;45749;51.140;17.184;2022-10-16T08:38:06;100323.09;;;15.67;100.00
59877;BME280;45749;51.140;17.184;2022-10-16T08:40:34;100321.81;;;15.71;100.00
59877;BME280;45749;51.140;17.184;2022-10-16T08:48:56;100331.64;;;15.84;100.00
59877;BME280;45749;51.140;17.184;2022-10-16T08:51:34;100327.07;;;15.90;100.00
59877;BME280;45749;51.140;17.184;2022-10-16T08:54:05;100332.10;;;15.93;100.00
59877;BME280;45749;51.140;17.184;2022-10-16T08:56:36;100340.13;;;15.98;100.00
59877;BME280;45749;51.140;17.184;2022-10-16T08:59:06;100345.01;;;16.02;100.00
59877;BME280;45749;51.140;17.184;2022-10-16T09:01:41;100341.22;;;16.05;100.00
59877;BME280;45749;51.140;17.184;2022-10-16T09:07:23;100351.16;;;16.12;100.00
59877;BME280;45749;51.140;17.184;2022-10-16T09:13:03;100345.77;;;16.22;100.00
59877;BME280;45749;51.140;17.184;2022-10-16T09:18:35;100354.61;;;16.36;100.00
59877;BME280;45749;51.140;17.184;2022-10-16T09:21:29;100358.02;;;16.43;100.00
59877;BME280;45749;51.140;17.184;2022-10-16T09:24:00;100361.76;;;16.50;100.00
59877;BME280;45749;51.140;17.184;2022-10-16T09:26:45;100331.48;;;16.37;99.88
59877;BME280;45749;51.140;17.184;2022-10-16T09:29:14;100337.33;;;16.54;99.88
59877;BME280;45749;51.140;17.184;2022-10-16T09:31:42;100337.33;;;16.54;99.88
59877;BME280;45749;51.140;17.184;2022-10-16T09:34:35;100361.69;;;16.73;99.61
59877;BME280;45749;51.140;17.184;2022-10-16T09:37:11;100342.83;;;16.71;99.19
59877;BME280;45749;51.140;17.184;2022-10-16T09:39:47;100366.38;;;16.89;99.28
59877;BME280;45749;51.140;17.184;2022-10-16T09:42:25;100366.38;;;16.89;99.28
59877;BME280;45749;51.140;17.184;2022-10-16T09:44:51;100349.66;;;16.83;99.31
59877;BME280;45749;51.140;17.184;2022-10-16T09:47:24;100333.14;;;16.79;98.94
59877;BME280;45749;51.140;17.184;2022-10-16T09:49:53;100355.66;;;16.99;99.02
59877;BME280;45749;51.140;17.184;2022-10-16T09:52:21;100357.41;;;17.08;99.07
59877;BME280;45749;51.140;17.184;2022-10-16T09:54:53;100361.16;;;17.19;99.28
59877;BME280;45749;51.140;17.184;2022-10-16T09:57:21;100361.16;;;17.19;99.28
59877;BME280;45749;51.140;17.184;2022-10-16T09:59:54;100363.22;;;17.25;98.87
59877;BME280;45749;51.140;17.184;2022-10-16T10:02:37;100356.08;;;17.30;98.96
59877;BME280;45749;51.140;17.184;2022-10-16T10:05:02;100361.30;;;17.35;99.11
59877;BME280;45749;51.140;17.184;2022-10-16T10:07:32;100363.36;;;17.42;98.91
59877;BME280;45749;51.140;17.184;2022-10-16T10:10:03;100361.23;;;17.49;99.07
59877;BME280;45749;51.140;17.184;2022-10-16T10:12:31;100363.31;;;17.59;98.85
59877;BME280;45749;51.140;17.184;2022-10-16T10:15:10;100348.09;;;17.74;100.00
59877;BME280;45749;51.140;17.184;2022-10-16T10:17:57;100345.56;;;17.94;99.96
59877;BME280;45749;51.140;17.184;2022-10-16T10:20:36;100347.69;;;18.17;100.00
59877;BME280;45749;51.140;17.184;2022-10-16T10:23:21;100351.95;;;18.40;99.31
59877;BME280;45749;51.140;17.184;2022-10-16T10:26:14;100348.66;;;18.58;97.70
59877;BME280;45749;51.140;17.184;2022-10-16T10:28:54;100353.42;;;18.72;96.28
59877;BME280;45749;51.140;17.184;2022-10-16T10:40:52;100359.09;;;18.73;95.18
59877;BME280;45749;51.140;17.184;2022-10-16T10:43:52;100364.48;;;18.90;95.53
59877;BME280;45749;51.140;17.184;2022-10-16T10:46:38;100360.50;;;19.02;95.07
59877;BME280;45749;51.140;17.184;2022-10-16T11:04:29;100344.19;;;20.06;92.32
59877;BME280;45749;51.140;17.184;2022-10-16T11:07:02;100346.16;;;20.16;90.88
59877;BME280;45749;51.140;17.184;2022-10-16T11:09:48;100360.19;;;20.30;92.07
59877;BME280;45749;51.140;17.184;2022-10-16T11:12:42;100347.56;;;20.39;90.87
59877;BME280;45749;51.140;17.184;2022-10-16T11:17:55;100346.82;;;20.61;90.21
59877;BME280;45749;51.140;17.184;2022-10-16T11:20:25;100348.61;;;20.73;89.93
59877;BME280;45749;51.140;17.184;2022-10-16T11:23:00;100348.20;;;20.84;89.25
59877;BME280;45749;51.140;17.184;2022-10-16T11:25:30;100342.28;;;20.93;89.37
59877;BME280;45749;51.140;17.184;2022-10-16T11:30:55;100333.09;;;21.11;88.60
59877;BME280;45749;51.140;17.184;2022-10-16T11:33:49;100333.88;;;21.15;88.31
59877;BME280;45749;51.140;17.184;2022-10-16T11:36:25;100324.48;;;21.19;86.80
59877;BME280;45749;51.140;17.184;2022-10-16T11:39:11;100327.59;;;21.27;86.51
59877;BME280;45749;51.140;17.184;2022-10-16T11:47:51;100340.61;;;21.34;86.67
59877;BME280;45749;51.140;17.184;2022-10-16T11:50:23;100339.36;;;21.45;85.99
59877;BME280;45749;51.140;17.184;2022-10-16T11:55:41;100334.91;;;21.56;84.86
59877;BME280;45749;51.140;17.184;2022-10-16T11:58:30;100331.41;;;21.56;82.90
59877;BME280;45749;51.140;17.184;2022-10-16T12:03:55;100328.31;;;21.44;83.33
59877;BME280;45749;51.140;17.184;2022-10-16T12:06:48;100333.89;;;21.38;82.98
59877;BME280;45749;51.140;17.184;2022-10-16T12:09:36;100344.67;;;21.30;83.38
59877;BME280;45749;51.140;17.184;2022-10-16T12:12:02;100362.01;;;21.23;83.20
59877;BME280;45749;51.140;17.184;2022-10-16T12:14:39;100354.16;;;21.18;83.04
59877;BME280;45749;51.140;17.184;2022-10-16T12:17:34;100358.73;;;21.13;82.31
59877;BME280;45749;51.140;17.184;2022-10-16T12:22:54;100351.91;;;21.02;82.34
59877;BME280;45749;51.140;17.184;2022-10-16T12:25:33;100362.05;;;20.96;82.96
59877;BME280;45749;51.140;17.184;2022-10-16T12:28:07;100368.59;;;20.94;82.87
59877;BME280;45749;51.140;17.184;2022-10-16T12:30:55;100383.53;;;20.88;82.44
59877;BME280;45749;51.140;17.184;2022-10-16T12:33:26;100378.88;;;20.82;82.32
59877;BME280;45749;51.140;17.184;2022-10-16T12:35:55;100387.62;;;20.80;82.72
59877;BME280;45749;51.140;17.184;2022-10-16T12:38:46;100383.95;;;20.77;82.67
59877;BME280;45749;51.140;17.184;2022-10-16T12:44:20;100384.48;;;20.68;82.42
59877;BME280;45749;51.140;17.184;2022-10-16T12:46:39;100392.05;;;20.65;82.49
59877;BME280;45749;51.140;17.184;2022-10-16T12:51:56;100399.28;;;20.56;82.40
59877;BME280;45749;51.140;17.184;2022-10-16T12:54:36;100400.80;;;20.50;82.32
59877;BME280;45749;51.140;17.184;2022-10-16T13:04:18;100405.86;;;20.41;82.31
59877;BME280;45749;51.140;17.184;2022-10-16T13:09:27;100414.40;;;20.36;82.16
59877;BME280;45749;51.140;17.184;2022-10-16T13:12:28;100409.89;;;20.33;82.23
59877;BME280;45749;51.140;17.184;2022-10-16T13:15:22;100416.94;;;20.30;82.51
59877;BME280;45749;51.140;17.184;2022-10-16T13:18:23;100415.94;;;20.27;82.73
59877;BME280;45749;51.140;17.184;2022-10-16T13:29:16;100410.94;;;20.20;82.97
59877;BME280;45749;51.140;17.184;2022-10-16T13:31:43;100415.97;;;20.19;83.04
59877;BME280;45749;51.140;17.184;2022-10-16T13:34:21;100429.05;;;20.18;82.97
59877;BME280;45749;51.140;17.184;2022-10-16T13:36:50;100431.73;;;20.18;83.11
59877;BME280;45749;51.140;17.184;2022-10-16T13:39:23;100436.90;;;20.19;82.90
59877;BME280;45749;51.140;17.184;2022-10-16T13:42:06;100426.50;;;20.20;83.03
59877;BME280;45749;51.140;17.184;2022-10-16T13:44:46;100423.67;;;20.22;83.31
59877;BME280;45749;51.140;17.184;2022-10-16T13:47:23;100429.35;;;20.23;83.04
59877;BME280;45749;51.140;17.184;2022-10-16T13:50:11;100436.87;;;20.23;83.26
59877;BME280;45749;51.140;17.184;2022-10-16T13:52:39;100432.70;;;20.25;83.63
59877;BME280;45749;51.140;17.184;2022-10-16T13:55:12;100435.05;;;20.28;83.48
59877;BME280;45749;51.140;17.184;2022-10-16T13:57:44;100426.66;;;20.27;83.50
59877;BME280;45749;51.140;17.184;2022-10-16T14:00:25;100435.21;;;20.30;83.62
59877;BME280;45749;51.140;17.184;2022-10-16T14:03:02;100434.36;;;20.34;83.64
59877;BME280;45749;51.140;17.184;2022-10-16T14:05:30;100439.52;;;20.39;82.92
59877;BME280;45749;51.140;17.184;2022-10-16T14:07:57;100443.38;;;20.41;82.88
59877;BME280;45749;51.140;17.184;2022-10-16T14:10:32;100442.53;;;20.45;83.22
59877;BME280;45749;51.140;17.184;2022-10-16T14:13:01;100448.88;;;20.48;83.30
59877;BME280;45749;51.140;17.184;2022-10-16T14:15:30;100452.76;;;20.53;83.20
59877;BME280;45749;51.140;17.184;2022-10-16T14:17:58;100456.59;;;20.55;82.73
59877;BME280;45749;51.140;17.184;2022-10-16T14:20:27;100458.77;;;20.55;82.54
59877;BME280;45749;51.140;17.184;2022-10-16T14:23:18;100456.41;;;20.56;82.37
59877;BME280;45749;51.140;17.184;2022-10-16T14:25:32;100457.41;;;20.59;83.09
59877;BME280;45749;51.140;17.184;2022-10-16T14:28:04;100460.09;;;20.64;83.05
59877;BME280;45749;51.140;17.184;2022-10-16T14:30:34;100459.58;;;20.64;83.00
59877;BME280;45749;51.140;17.184;2022-10-16T14:33:18;100461.91;;;20.63;82.12